sensor_id;sensor_type;location;lat;lon;timestamp;temperature;humidity
23703;DHT22;12030;50.376;8.762;2024-01-16T00:01:12;1.70;99.90
23703;DHT22;12030;50.376;8.762;2024-01-16T00:03:39;1.70;99.90
23703;DHT22;12030;50.376;8.762;2024-01-16T00:06:05;1.70;99.90
23703;DHT22;12030;50.376;8.762;2024-01-16T00:08:32;1.70;99.90
23703;DHT22;12030;50.376;8.762;2024-01-16T00:10:57;1.70;99.90
23703;DHT22;12030;50.376;8.762;2024-01-16T00:13:23;1.60;99.90
23703;DHT22;12030;50.376;8.762;2024-01-16T00:15:48;1.60;99.90
23703;DHT22;12030;50.376;8.762;2024-01-16T00:18:15;1.60;99.90
23703;DHT22;12030;50.376;8.762;2024-01-16T00:20:40;1.60;99.90
23703;DHT22;12030;50.376;8.762;2024-01-16T00:23:06;1.60;99.90
23703;DHT22;12030;50.376;8.762;2024-01-16T00:25:32;1.50;99.90
23703;DHT22;12030;50.376;8.762;2024-01-16T00:27:57;1.50;99.90
23703;DHT22;12030;50.376;8.762;2024-01-16T00:30:23;1.50;99.90
23703;DHT22;12030;50.376;8.762;2024-01-16T00:32:48;1.60;99.90
23703;DHT22;12030;50.376;8.762;2024-01-16T00:35:14;1.60;99.90
23703;DHT22;12030;50.376;8.762;2024-01-16T00:37:39;1.60;99.90
23703;DHT22;12030;50.376;8.762;2024-01-16T00:40:05;1.60;99.90
23703;DHT22;12030;50.376;8.762;2024-01-16T00:42:33;1.70;99.90
23703;DHT22;12030;50.376;8.762;2024-01-16T00:44:59;1.60;99.90
23703;DHT22;12030;50.376;8.762;2024-01-16T00:47:25;1.70;99.90
23703;DHT22;12030;50.376;8.762;2024-01-16T00:49:50;1.60;99.90
23703;DHT22;12030;50.376;8.762;2024-01-16T00:52:16;1.60;99.90
23703;DHT22;12030;50.376;8.762;2024-01-16T00:54:43;1.60;99.90
23703;DHT22;12030;50.376;8.762;2024-01-16T00:57:08;1.70;99.90
23703;DHT22;12030;50.376;8.762;2024-01-16T00:59:34;1.70;99.90
23703;DHT22;12030;50.376;8.762;2024-01-16T01:01:59;1.70;99.90
23703;DHT22;12030;50.376;8.762;2024-01-16T01:04:25;1.70;99.90
23703;DHT22;12030;50.376;8.762;2024-01-16T01:06:50;1.70;99.90
23703;DHT22;12030;50.376;8.762;2024-01-16T01:09:16;1.70;99.90
23703;DHT22;12030;50.376;8.762;2024-01-16T01:11:42;1.70;99.90
23703;DHT22;12030;50.376;8.762;2024-01-16T01:14:08;1.70;99.90
23703;DHT22;12030;50.376;8.762;2024-01-16T01:16:34;1.70;99.90
23703;DHT22;12030;50.376;8.762;2024-01-16T01:18:59;1.70;99.90
23703;DHT22;12030;50.376;8.762;2024-01-16T01:21:25;1.70;99.90
23703;DHT22;12030;50.376;8.762;2024-01-16T01:23:51;1.70;99.90
23703;DHT22;12030;50.376;8.762;2024-01-16T01:26:16;1.70;99.90
23703;DHT22;12030;50.376;8.762;2024-01-16T01:28:43;1.60;99.90
23703;DHT22;12030;50.376;8.762;2024-01-16T01:31:12;1.60;99.90
23703;DHT22;12030;50.376;8.762;2024-01-16T01:33:39;1.60;99.90
23703;DHT22;12030;50.376;8.762;2024-01-16T01:36:05;1.60;99.90
23703;DHT22;12030;50.376;8.762;2024-01-16T01:38:31;1.60;99.90
23703;DHT22;12030;50.376;8.762;2024-01-16T01:40:56;1.60;99.90
23703;DHT22;12030;50.376;8.762;2024-01-16T01:43:24;1.60;99.90
23703;DHT22;12030;50.376;8.762;2024-01-16T01:48:38;1.70;99.90
23703;DHT22;12030;50.376;8.762;2024-01-16T01:51:04;1.60;99.90
23703;DHT22;12030;50.376;8.762;2024-01-16T01:53:31;1.60;99.90
23703;DHT22;12030;50.376;8.762;2024-01-16T01:55:57;1.70;99.90
23703;DHT22;12030;50.376;8.762;2024-01-16T01:58:24;1.70;99.90
23703;DHT22;12030;50.376;8.762;2024-01-16T02:00:50;1.60;99.90
23703;DHT22;12030;50.376;8.762;2024-01-16T02:03:15;1.60;99.90
23703;DHT22;12030;50.376;8.762;2024-01-16T02:05:42;1.60;99.90
23703;DHT22;12030;50.376;8.762;2024-01-16T02:08:08;1.70;99.90
23703;DHT22;12030;50.376;8.762;2024-01-16T02:10:37;1.70;99.90
23703;DHT22;12030;50.376;8.762;2024-01-16T02:13:02;1.70;99.90
23703;DHT22;12030;50.376;8.762;2024-01-16T02:15:28;1.70;99.90
23703;DHT22;12030;50.376;8.762;2024-01-16T02:17:54;1.70;99.90
23703;DHT22;12030;50.376;8.762;2024-01-16T02:20:19;1.70;99.90
23703;DHT22;12030;50.376;8.762;2024-01-16T02:22:47;1.70;99.90
23703;DHT22;12030;50.376;8.762;2024-01-16T02:25:13;1.80;99.90
23703;DHT22;12030;50.376;8.762;2024-01-16T02:27:39;1.80;99.90
23703;DHT22;12030;50.376;8.762;2024-01-16T02:30:05;1.80;99.90
23703;DHT22;12030;50.376;8.762;2024-01-16T02:32:31;1.80;99.90
23703;DHT22;12030;50.376;8.762;2024-01-16T02:34:57;1.70;99.90
23703;DHT22;12030;50.376;8.762;2024-01-16T02:37:23;1.70;99.90
23703;DHT22;12030;50.376;8.762;2024-01-16T02:39:49;1.80;99.90
23703;DHT22;12030;50.376;8.762;2024-01-16T02:42:15;1.70;99.90
23703;DHT22;12030;50.376;8.762;2024-01-16T02:44:40;1.70;99.90
23703;DHT22;12030;50.376;8.762;2024-01-16T02:47:06;1.80;99.90
23703;DHT22;12030;50.376;8.762;2024-01-16T02:49:32;1.80;99.90
23703;DHT22;12030;50.376;8.762;2024-01-16T02:51:58;1.70;99.90
23703;DHT22;12030;50.376;8.762;2024-01-16T02:54:24;1.70;99.90
23703;DHT22;12030;50.376;8.762;2024-01-16T02:56:49;1.80;99.90
23703;DHT22;12030;50.376;8.762;2024-01-16T02:59:15;1.80;99.90
23703;DHT22;12030;50.376;8.762;2024-01-16T03:01:41;1.70;99.90
23703;DHT22;12030;50.376;8.762;2024-01-16T03:04:06;1.70;99.90
23703;DHT22;12030;50.376;8.762;2024-01-16T03:06:32;1.80;99.90
23703;DHT22;12030;50.376;8.762;2024-01-16T03:08:57;1.80;99.90
23703;DHT22;12030;50.376;8.762;2024-01-16T03:11:23;1.80;99.90
23703;DHT22;12030;50.376;8.762;2024-01-16T03:13:48;1.90;99.90
23703;DHT22;12030;50.376;8.762;2024-01-16T03:16:17;1.90;99.90
23703;DHT22;12030;50.376;8.762;2024-01-16T03:18:43;1.90;99.90
23703;DHT22;12030;50.376;8.762;2024-01-16T03:21:08;1.80;99.90
23703;DHT22;12030;50.376;8.762;2024-01-16T03:23:34;1.80;99.90
23703;DHT22;12030;50.376;8.762;2024-01-16T03:25:59;1.80;99.90
23703;DHT22;12030;50.376;8.762;2024-01-16T03:28:25;1.80;99.90
23703;DHT22;12030;50.376;8.762;2024-01-16T03:30:50;1.90;99.90
23703;DHT22;12030;50.376;8.762;2024-01-16T03:33:16;1.90;99.90
23703;DHT22;12030;50.376;8.762;2024-01-16T03:35:41;1.90;99.90
23703;DHT22;12030;50.376;8.762;2024-01-16T03:38:07;1.80;99.90
23703;DHT22;12030;50.376;8.762;2024-01-16T03:40:32;1.80;99.90
23703;DHT22;12030;50.376;8.762;2024-01-16T03:43:00;1.80;99.90
23703;DHT22;12030;50.376;8.762;2024-01-16T03:45:26;1.90;99.90
23703;DHT22;12030;50.376;8.762;2024-01-16T03:47:51;1.80;99.90
23703;DHT22;12030;50.376;8.762;2024-01-16T03:50:17;1.70;99.90
23703;DHT22;12030;50.376;8.762;2024-01-16T03:52:42;1.80;99.90
23703;DHT22;12030;50.376;8.762;2024-01-16T03:55:08;1.80;99.90
23703;DHT22;12030;50.376;8.762;2024-01-16T03:57:34;1.80;99.90
23703;DHT22;12030;50.376;8.762;2024-01-16T03:59:59;1.80;99.90
23703;DHT22;12030;50.376;8.762;2024-01-16T04:02:25;1.80;99.90
23703;DHT22;12030;50.376;8.762;2024-01-16T04:04:50;1.80;99.90
23703;DHT22;12030;50.376;8.762;2024-01-16T04:07:16;1.80;99.90
23703;DHT22;12030;50.376;8.762;2024-01-16T04:09:44;1.80;99.90
23703;DHT22;12030;50.376;8.762;2024-01-16T04:12:10;1.80;99.90
23703;DHT22;12030;50.376;8.762;2024-01-16T04:14:36;1.80;99.90
23703;DHT22;12030;50.376;8.762;2024-01-16T04:17:02;1.80;99.90
23703;DHT22;12030;50.376;8.762;2024-01-16T04:19:27;1.80;99.90
23703;DHT22;12030;50.376;8.762;2024-01-16T04:21:53;1.80;99.90
23703;DHT22;12030;50.376;8.762;2024-01-16T04:24:19;1.80;99.90
23703;DHT22;12030;50.376;8.762;2024-01-16T04:26:44;1.80;99.90
23703;DHT22;12030;50.376;8.762;2024-01-16T04:29:10;1.80;99.90
23703;DHT22;12030;50.376;8.762;2024-01-16T04:31:40;1.80;99.90
23703;DHT22;12030;50.376;8.762;2024-01-16T04:34:06;1.80;99.90
23703;DHT22;12030;50.376;8.762;2024-01-16T04:36:32;1.80;99.90
23703;DHT22;12030;50.376;8.762;2024-01-16T04:38:57;1.80;99.90
23703;DHT22;12030;50.376;8.762;2024-01-16T04:41:23;1.80;99.90
23703;DHT22;12030;50.376;8.762;2024-01-16T04:43:49;1.80;99.90
23703;DHT22;12030;50.376;8.762;2024-01-16T04:46:15;1.80;99.90
23703;DHT22;12030;50.376;8.762;2024-01-16T04:48:41;1.90;99.90
23703;DHT22;12030;50.376;8.762;2024-01-16T04:51:07;1.80;99.90
23703;DHT22;12030;50.376;8.762;2024-01-16T04:53:33;1.80;99.90
23703;DHT22;12030;50.376;8.762;2024-01-16T04:55:59;1.80;99.90
23703;DHT22;12030;50.376;8.762;2024-01-16T04:58:24;1.80;99.90
23703;DHT22;12030;50.376;8.762;2024-01-16T05:00:50;1.80;99.90
23703;DHT22;12030;50.376;8.762;2024-01-16T05:03:15;1.80;99.90
23703;DHT22;12030;50.376;8.762;2024-01-16T05:05:41;1.80;99.90
23703;DHT22;12030;50.376;8.762;2024-01-16T05:08:06;1.80;99.90
23703;DHT22;12030;50.376;8.762;2024-01-16T05:10:32;1.80;99.90
23703;DHT22;12030;50.376;8.762;2024-01-16T05:12:58;1.70;99.90
23703;DHT22;12030;50.376;8.762;2024-01-16T05:15:23;1.70;99.90
23703;DHT22;12030;50.376;8.762;2024-01-16T05:17:49;1.70;99.90
23703;DHT22;12030;50.376;8.762;2024-01-16T05:20:15;1.70;99.90
23703;DHT22;12030;50.376;8.762;2024-01-16T05:22:40;1.70;99.90
23703;DHT22;12030;50.376;8.762;2024-01-16T05:25:06;1.60;99.90
23703;DHT22;12030;50.376;8.762;2024-01-16T05:27:33;1.60;99.90
23703;DHT22;12030;50.376;8.762;2024-01-16T05:29:58;1.60;99.90
23703;DHT22;12030;50.376;8.762;2024-01-16T05:32:24;1.60;99.90
23703;DHT22;12030;50.376;8.762;2024-01-16T05:34:50;1.60;99.90
23703;DHT22;12030;50.376;8.762;2024-01-16T05:37:15;1.60;99.90
23703;DHT22;12030;50.376;8.762;2024-01-16T05:39:41;1.60;99.90
23703;DHT22;12030;50.376;8.762;2024-01-16T05:42:07;1.50;99.90
23703;DHT22;12030;50.376;8.762;2024-01-16T05:44:32;1.50;99.90
23703;DHT22;12030;50.376;8.762;2024-01-16T05:46:58;1.50;99.90
23703;DHT22;12030;50.376;8.762;2024-01-16T05:49:23;1.50;99.90
23703;DHT22;12030;50.376;8.762;2024-01-16T05:51:49;1.50;99.90
23703;DHT22;12030;50.376;8.762;2024-01-16T05:54:14;1.50;99.90
23703;DHT22;12030;50.376;8.762;2024-01-16T05:56:40;1.50;99.90
23703;DHT22;12030;50.376;8.762;2024-01-16T05:59:05;1.50;99.90
23703;DHT22;12030;50.376;8.762;2024-01-16T06:01:32;1.50;99.90
23703;DHT22;12030;50.376;8.762;2024-01-16T06:03:59;1.40;99.90
23703;DHT22;12030;50.376;8.762;2024-01-16T06:06:25;1.50;99.90
23703;DHT22;12030;50.376;8.762;2024-01-16T06:08:51;1.50;99.90
23703;DHT22;12030;50.376;8.762;2024-01-16T06:11:17;1.40;99.90
23703;DHT22;12030;50.376;8.762;2024-01-16T06:13:44;1.40;99.90
23703;DHT22;12030;50.376;8.762;2024-01-16T06:16:10;1.40;99.90
23703;DHT22;12030;50.376;8.762;2024-01-16T06:18:36;1.40;99.90
23703;DHT22;12030;50.376;8.762;2024-01-16T06:21:02;1.50;99.90
23703;DHT22;12030;50.376;8.762;2024-01-16T06:23:28;1.60;99.90
23703;DHT22;12030;50.376;8.762;2024-01-16T06:25:54;1.70;99.90
23703;DHT22;12030;50.376;8.762;2024-01-16T06:28:20;1.80;99.90
23703;DHT22;12030;50.376;8.762;2024-01-16T06:30:45;1.80;99.90
23703;DHT22;12030;50.376;8.762;2024-01-16T06:33:11;1.80;99.90
23703;DHT22;12030;50.376;8.762;2024-01-16T06:35:36;1.80;99.90
23703;DHT22;12030;50.376;8.762;2024-01-16T06:38:02;1.80;99.90
23703;DHT22;12030;50.376;8.762;2024-01-16T06:40:27;1.70;99.90
23703;DHT22;12030;50.376;8.762;2024-01-16T06:42:53;1.60;99.90
23703;DHT22;12030;50.376;8.762;2024-01-16T06:45:18;1.50;99.90
23703;DHT22;12030;50.376;8.762;2024-01-16T06:47:44;1.50;99.90
23703;DHT22;12030;50.376;8.762;2024-01-16T06:50:10;1.50;99.90
23703;DHT22;12030;50.376;8.762;2024-01-16T06:52:35;1.40;99.90
23703;DHT22;12030;50.376;8.762;2024-01-16T06:55:01;1.50;99.90
23703;DHT22;12030;50.376;8.762;2024-01-16T06:57:26;1.40;99.90
23703;DHT22;12030;50.376;8.762;2024-01-16T06:59:52;1.40;99.90
23703;DHT22;12030;50.376;8.762;2024-01-16T07:02:18;1.30;99.90
23703;DHT22;12030;50.376;8.762;2024-01-16T07:04:43;1.30;99.90
23703;DHT22;12030;50.376;8.762;2024-01-16T07:07:09;1.20;99.90
23703;DHT22;12030;50.376;8.762;2024-01-16T07:09:35;1.20;99.90
23703;DHT22;12030;50.376;8.762;2024-01-16T07:12:00;1.10;99.90
23703;DHT22;12030;50.376;8.762;2024-01-16T07:14:26;1.10;99.90
23703;DHT22;12030;50.376;8.762;2024-01-16T07:16:51;1.10;99.90
23703;DHT22;12030;50.376;8.762;2024-01-16T07:19:17;1.10;99.90
23703;DHT22;12030;50.376;8.762;2024-01-16T07:21:42;1.10;99.90
23703;DHT22;12030;50.376;8.762;2024-01-16T07:24:10;1.10;99.90
23703;DHT22;12030;50.376;8.762;2024-01-16T07:26:35;1.10;99.90
23703;DHT22;12030;50.376;8.762;2024-01-16T07:29:02;1.00;99.90
23703;DHT22;12030;50.376;8.762;2024-01-16T07:31:28;1.00;99.90
23703;DHT22;12030;50.376;8.762;2024-01-16T07:33:53;1.00;99.90
23703;DHT22;12030;50.376;8.762;2024-01-16T07:36:19;1.00;99.90
23703;DHT22;12030;50.376;8.762;2024-01-16T07:38:44;1.00;99.90
23703;DHT22;12030;50.376;8.762;2024-01-16T07:41:10;1.00;99.90
23703;DHT22;12030;50.376;8.762;2024-01-16T07:43:35;1.00;99.90
23703;DHT22;12030;50.376;8.762;2024-01-16T07:46:01;1.00;99.90
23703;DHT22;12030;50.376;8.762;2024-01-16T07:48:27;0.90;99.90
23703;DHT22;12030;50.376;8.762;2024-01-16T07:50:52;0.90;99.90
23703;DHT22;12030;50.376;8.762;2024-01-16T07:53:18;0.90;99.90
23703;DHT22;12030;50.376;8.762;2024-01-16T07:55:44;1.00;99.90
23703;DHT22;12030;50.376;8.762;2024-01-16T07:58:13;1.10;99.90
23703;DHT22;12030;50.376;8.762;2024-01-16T08:00:38;1.00;99.90
23703;DHT22;12030;50.376;8.762;2024-01-16T08:03:08;1.10;99.90
23703;DHT22;12030;50.376;8.762;2024-01-16T08:05:33;1.00;99.90
23703;DHT22;12030;50.376;8.762;2024-01-16T08:07:59;0.70;99.90
23703;DHT22;12030;50.376;8.762;2024-01-16T08:10:24;0.60;99.90
23703;DHT22;12030;50.376;8.762;2024-01-16T08:12:50;0.60;99.90
23703;DHT22;12030;50.376;8.762;2024-01-16T08:15:16;0.70;99.90
23703;DHT22;12030;50.376;8.762;2024-01-16T08:17:41;0.70;99.90
23703;DHT22;12030;50.376;8.762;2024-01-16T08:20:08;0.70;99.90
23703;DHT22;12030;50.376;8.762;2024-01-16T08:22:36;0.70;99.90
23703;DHT22;12030;50.376;8.762;2024-01-16T08:25:01;0.80;99.90
23703;DHT22;12030;50.376;8.762;2024-01-16T08:27:27;0.90;99.90
23703;DHT22;12030;50.376;8.762;2024-01-16T08:29:54;1.00;99.90
23703;DHT22;12030;50.376;8.762;2024-01-16T08:32:19;1.00;99.90
23703;DHT22;12030;50.376;8.762;2024-01-16T08:34:45;1.00;99.90
23703;DHT22;12030;50.376;8.762;2024-01-16T08:37:10;1.00;99.90
23703;DHT22;12030;50.376;8.762;2024-01-16T08:39:36;1.00;99.90
23703;DHT22;12030;50.376;8.762;2024-01-16T08:42:01;1.00;99.90
23703;DHT22;12030;50.376;8.762;2024-01-16T08:44:28;1.20;99.90
23703;DHT22;12030;50.376;8.762;2024-01-16T08:46:54;1.30;99.90
23703;DHT22;12030;50.376;8.762;2024-01-16T08:49:20;1.40;99.90
23703;DHT22;12030;50.376;8.762;2024-01-16T08:51:45;1.40;99.90
23703;DHT22;12030;50.376;8.762;2024-01-16T08:54:11;1.30;99.90
23703;DHT22;12030;50.376;8.762;2024-01-16T08:56:37;1.50;99.90
23703;DHT22;12030;50.376;8.762;2024-01-16T08:59:02;1.50;99.90
23703;DHT22;12030;50.376;8.762;2024-01-16T09:01:28;1.60;99.90
23703;DHT22;12030;50.376;8.762;2024-01-16T09:03:53;1.60;99.90
23703;DHT22;12030;50.376;8.762;2024-01-16T09:06:19;1.70;99.90
23703;DHT22;12030;50.376;8.762;2024-01-16T09:08:44;1.70;99.90
23703;DHT22;12030;50.376;8.762;2024-01-16T09:11:10;1.60;99.90
23703;DHT22;12030;50.376;8.762;2024-01-16T09:13:37;1.60;99.90
23703;DHT22;12030;50.376;8.762;2024-01-16T09:16:03;1.50;99.90
23703;DHT22;12030;50.376;8.762;2024-01-16T09:18:28;1.70;99.90
23703;DHT22;12030;50.376;8.762;2024-01-16T09:20:54;1.60;99.90
23703;DHT22;12030;50.376;8.762;2024-01-16T09:23:20;1.70;99.90
23703;DHT22;12030;50.376;8.762;2024-01-16T09:25:46;1.80;99.90
23703;DHT22;12030;50.376;8.762;2024-01-16T09:28:11;2.00;99.90
23703;DHT22;12030;50.376;8.762;2024-01-16T09:30:37;2.10;99.90
23703;DHT22;12030;50.376;8.762;2024-01-16T09:33:03;2.00;99.90
23703;DHT22;12030;50.376;8.762;2024-01-16T09:35:32;2.00;99.90
23703;DHT22;12030;50.376;8.762;2024-01-16T09:37:58;1.90;99.90
23703;DHT22;12030;50.376;8.762;2024-01-16T09:40:25;1.90;99.90
23703;DHT22;12030;50.376;8.762;2024-01-16T09:42:51;1.90;99.90
23703;DHT22;12030;50.376;8.762;2024-01-16T09:45:20;1.90;99.90
23703;DHT22;12030;50.376;8.762;2024-01-16T09:47:50;1.90;99.90
23703;DHT22;12030;50.376;8.762;2024-01-16T09:50:16;1.80;99.90
23703;DHT22;12030;50.376;8.762;2024-01-16T09:52:46;1.70;99.90
23703;DHT22;12030;50.376;8.762;2024-01-16T09:55:13;1.80;99.90
23703;DHT22;12030;50.376;8.762;2024-01-16T09:57:39;1.70;99.90
23703;DHT22;12030;50.376;8.762;2024-01-16T10:00:10;1.90;99.90
23703;DHT22;12030;50.376;8.762;2024-01-16T10:02:39;1.90;99.90
23703;DHT22;12030;50.376;8.762;2024-01-16T10:05:15;1.90;99.90
23703;DHT22;12030;50.376;8.762;2024-01-16T10:07:42;2.00;99.90
23703;DHT22;12030;50.376;8.762;2024-01-16T10:10:10;2.20;99.90
23703;DHT22;12030;50.376;8.762;2024-01-16T10:12:37;2.20;99.90
23703;DHT22;12030;50.376;8.762;2024-01-16T10:15:06;2.30;99.90
23703;DHT22;12030;50.376;8.762;2024-01-16T10:20:02;2.30;99.90
23703;DHT22;12030;50.376;8.762;2024-01-16T10:22:30;2.30;99.90
23703;DHT22;12030;50.376;8.762;2024-01-16T10:25:09;2.40;99.90
23703;DHT22;12030;50.376;8.762;2024-01-16T10:27:36;2.40;99.90
23703;DHT22;12030;50.376;8.762;2024-01-16T10:30:03;2.40;99.90
23703;DHT22;12030;50.376;8.762;2024-01-16T10:35:09;2.30;99.90
23703;DHT22;12030;50.376;8.762;2024-01-16T10:37:52;2.30;99.90
23703;DHT22;12030;50.376;8.762;2024-01-16T10:40:20;2.30;99.90
23703;DHT22;12030;50.376;8.762;2024-01-16T10:42:57;2.30;99.90
23703;DHT22;12030;50.376;8.762;2024-01-16T10:45:23;2.30;99.90
23703;DHT22;12030;50.376;8.762;2024-01-16T10:48:00;2.30;99.90
23703;DHT22;12030;50.376;8.762;2024-01-16T10:50:25;2.30;99.90
23703;DHT22;12030;50.376;8.762;2024-01-16T10:52:51;2.40;99.90
23703;DHT22;12030;50.376;8.762;2024-01-16T10:55:22;2.50;99.90
23703;DHT22;12030;50.376;8.762;2024-01-16T10:57:52;2.60;99.90
23703;DHT22;12030;50.376;8.762;2024-01-16T11:00:19;2.70;99.90
23703;DHT22;12030;50.376;8.762;2024-01-16T11:05:22;2.80;99.90
23703;DHT22;12030;50.376;8.762;2024-01-16T11:07:48;2.90;99.90
23703;DHT22;12030;50.376;8.762;2024-01-16T11:10:15;3.00;99.90
23703;DHT22;12030;50.376;8.762;2024-01-16T11:12:41;3.00;99.90
23703;DHT22;12030;50.376;8.762;2024-01-16T11:15:08;3.00;99.90
23703;DHT22;12030;50.376;8.762;2024-01-16T11:17:38;3.00;99.90
23703;DHT22;12030;50.376;8.762;2024-01-16T11:20:04;3.00;99.90
23703;DHT22;12030;50.376;8.762;2024-01-16T11:22:40;2.90;99.90
23703;DHT22;12030;50.376;8.762;2024-01-16T11:25:12;2.90;99.90
23703;DHT22;12030;50.376;8.762;2024-01-16T11:27:42;2.90;99.90
23703;DHT22;12030;50.376;8.762;2024-01-16T11:30:10;3.10;99.90
23703;DHT22;12030;50.376;8.762;2024-01-16T11:32:41;3.10;99.90
23703;DHT22;12030;50.376;8.762;2024-01-16T11:35:10;3.10;99.90
23703;DHT22;12030;50.376;8.762;2024-01-16T11:37:36;3.00;99.90
23703;DHT22;12030;50.376;8.762;2024-01-16T11:42:48;2.80;99.90
23703;DHT22;12030;50.376;8.762;2024-01-16T11:48:14;2.90;99.90
23703;DHT22;12030;50.376;8.762;2024-01-16T11:50:40;2.90;99.90
23703;DHT22;12030;50.376;8.762;2024-01-16T11:53:06;3.00;99.90
23703;DHT22;12030;50.376;8.762;2024-01-16T12:01:00;3.00;99.90
23703;DHT22;12030;50.376;8.762;2024-01-16T12:03:26;3.10;99.90
23703;DHT22;12030;50.376;8.762;2024-01-16T12:05:59;3.20;99.90
23703;DHT22;12030;50.376;8.762;2024-01-16T12:08:25;3.30;99.90
23703;DHT22;12030;50.376;8.762;2024-01-16T12:10:51;3.20;99.90
23703;DHT22;12030;50.376;8.762;2024-01-16T12:13:16;3.20;99.90
23703;DHT22;12030;50.376;8.762;2024-01-16T12:15:42;3.10;99.90
23703;DHT22;12030;50.376;8.762;2024-01-16T12:18:08;3.30;99.90
23703;DHT22;12030;50.376;8.762;2024-01-16T12:20:36;3.20;99.90
23703;DHT22;12030;50.376;8.762;2024-01-16T12:23:02;3.20;99.90
23703;DHT22;12030;50.376;8.762;2024-01-16T12:25:30;3.10;99.90
23703;DHT22;12030;50.376;8.762;2024-01-16T12:28:00;3.10;99.90
23703;DHT22;12030;50.376;8.762;2024-01-16T12:30:27;3.00;99.90
23703;DHT22;12030;50.376;8.762;2024-01-16T12:35:38;2.90;99.90
23703;DHT22;12030;50.376;8.762;2024-01-16T12:38:06;2.90;99.90
23703;DHT22;12030;50.376;8.762;2024-01-16T12:40:55;3.00;99.90
23703;DHT22;12030;50.376;8.762;2024-01-16T12:43:20;3.10;99.90
23703;DHT22;12030;50.376;8.762;2024-01-16T12:45:46;3.10;99.90
23703;DHT22;12030;50.376;8.762;2024-01-16T12:48:23;3.10;99.90
23703;DHT22;12030;50.376;8.762;2024-01-16T12:50:49;3.20;99.90
23703;DHT22;12030;50.376;8.762;2024-01-16T12:53:14;3.10;99.90
23703;DHT22;12030;50.376;8.762;2024-01-16T12:55:42;3.00;99.90
23703;DHT22;12030;50.376;8.762;2024-01-16T12:58:21;3.00;99.90
23703;DHT22;12030;50.376;8.762;2024-01-16T13:00:50;2.90;99.90
23703;DHT22;12030;50.376;8.762;2024-01-16T13:03:18;2.70;99.90
23703;DHT22;12030;50.376;8.762;2024-01-16T13:05:44;2.70;99.90
23703;DHT22;12030;50.376;8.762;2024-01-16T13:08:16;2.70;99.90
23703;DHT22;12030;50.376;8.762;2024-01-16T13:10:42;2.70;99.90
23703;DHT22;12030;50.376;8.762;2024-01-16T13:13:17;2.80;99.90
23703;DHT22;12030;50.376;8.762;2024-01-16T13:15:44;2.80;99.90
23703;DHT22;12030;50.376;8.762;2024-01-16T13:18:23;2.80;99.90
23703;DHT22;12030;50.376;8.762;2024-01-16T13:20:54;2.70;99.90
23703;DHT22;12030;50.376;8.762;2024-01-16T13:23:20;2.70;99.90
23703;DHT22;12030;50.376;8.762;2024-01-16T13:25:47;2.70;99.90
23703;DHT22;12030;50.376;8.762;2024-01-16T13:28:17;2.60;99.90
23703;DHT22;12030;50.376;8.762;2024-01-16T13:30:44;2.60;99.90
23703;DHT22;12030;50.376;8.762;2024-01-16T13:33:10;2.60;99.90
23703;DHT22;12030;50.376;8.762;2024-01-16T13:35:40;2.70;99.90
23703;DHT22;12030;50.376;8.762;2024-01-16T13:38:08;2.80;99.90
23703;DHT22;12030;50.376;8.762;2024-01-16T13:40:34;2.90;99.90
23703;DHT22;12030;50.376;8.762;2024-01-16T13:43:00;2.90;99.90
23703;DHT22;12030;50.376;8.762;2024-01-16T13:45:26;2.90;99.90
23703;DHT22;12030;50.376;8.762;2024-01-16T13:47:52;2.90;99.90
23703;DHT22;12030;50.376;8.762;2024-01-16T13:50:18;2.90;99.90
23703;DHT22;12030;50.376;8.762;2024-01-16T13:52:43;3.10;99.90
23703;DHT22;12030;50.376;8.762;2024-01-16T13:55:09;3.20;99.90
23703;DHT22;12030;50.376;8.762;2024-01-16T13:57:35;3.20;99.90
23703;DHT22;12030;50.376;8.762;2024-01-16T14:00:10;3.30;99.90
23703;DHT22;12030;50.376;8.762;2024-01-16T14:02:41;3.40;99.90
23703;DHT22;12030;50.376;8.762;2024-01-16T14:05:10;3.50;99.90
23703;DHT22;12030;50.376;8.762;2024-01-16T14:07:39;3.60;99.90
23703;DHT22;12030;50.376;8.762;2024-01-16T14:10:07;3.60;99.90
23703;DHT22;12030;50.376;8.762;2024-01-16T14:12:34;3.70;99.90
23703;DHT22;12030;50.376;8.762;2024-01-16T14:15:01;3.80;99.90
23703;DHT22;12030;50.376;8.762;2024-01-16T14:17:29;3.90;99.90
23703;DHT22;12030;50.376;8.762;2024-01-16T14:19:55;3.80;99.90
23703;DHT22;12030;50.376;8.762;2024-01-16T14:22:21;3.80;99.90
23703;DHT22;12030;50.376;8.762;2024-01-16T14:24:46;3.80;99.90
23703;DHT22;12030;50.376;8.762;2024-01-16T14:27:13;3.70;99.90
23703;DHT22;12030;50.376;8.762;2024-01-16T14:29:38;3.60;99.90
23703;DHT22;12030;50.376;8.762;2024-01-16T14:32:05;3.60;99.90
23703;DHT22;12030;50.376;8.762;2024-01-16T14:34:31;3.40;99.90
23703;DHT22;12030;50.376;8.762;2024-01-16T14:36:56;3.40;99.90
23703;DHT22;12030;50.376;8.762;2024-01-16T14:39:22;3.40;99.90
23703;DHT22;12030;50.376;8.762;2024-01-16T14:41:50;3.30;99.90
23703;DHT22;12030;50.376;8.762;2024-01-16T14:44:17;3.30;99.90
23703;DHT22;12030;50.376;8.762;2024-01-16T14:46:43;3.20;99.90
23703;DHT22;12030;50.376;8.762;2024-01-16T14:49:09;3.30;99.90
23703;DHT22;12030;50.376;8.762;2024-01-16T14:51:34;3.20;99.90
23703;DHT22;12030;50.376;8.762;2024-01-16T14:54:00;3.20;99.90
23703;DHT22;12030;50.376;8.762;2024-01-16T14:56:27;3.10;99.90
23703;DHT22;12030;50.376;8.762;2024-01-16T14:58:53;3.00;99.90
23703;DHT22;12030;50.376;8.762;2024-01-16T15:01:18;3.00;99.90
23703;DHT22;12030;50.376;8.762;2024-01-16T15:03:44;3.00;99.90
23703;DHT22;12030;50.376;8.762;2024-01-16T15:06:09;3.10;99.90
23703;DHT22;12030;50.376;8.762;2024-01-16T15:08:38;3.00;99.90
23703;DHT22;12030;50.376;8.762;2024-01-16T15:11:03;3.00;99.90
23703;DHT22;12030;50.376;8.762;2024-01-16T15:13:31;3.10;99.90
23703;DHT22;12030;50.376;8.762;2024-01-16T15:15:56;3.00;99.90
23703;DHT22;12030;50.376;8.762;2024-01-16T15:18:22;3.00;99.90
23703;DHT22;12030;50.376;8.762;2024-01-16T15:20:47;3.00;99.90
23703;DHT22;12030;50.376;8.762;2024-01-16T15:23:13;2.90;99.90
23703;DHT22;12030;50.376;8.762;2024-01-16T15:25:38;2.90;99.90
23703;DHT22;12030;50.376;8.762;2024-01-16T15:28:05;2.80;99.90
23703;DHT22;12030;50.376;8.762;2024-01-16T15:30:30;2.70;99.90
23703;DHT22;12030;50.376;8.762;2024-01-16T15:33:03;2.60;99.90
23703;DHT22;12030;50.376;8.762;2024-01-16T15:35:29;2.60;99.90
23703;DHT22;12030;50.376;8.762;2024-01-16T15:37:55;2.40;99.90
23703;DHT22;12030;50.376;8.762;2024-01-16T15:40:20;2.30;99.90
23703;DHT22;12030;50.376;8.762;2024-01-16T15:42:46;2.30;99.90
23703;DHT22;12030;50.376;8.762;2024-01-16T15:45:11;2.30;99.90
23703;DHT22;12030;50.376;8.762;2024-01-16T15:47:37;2.20;99.90
23703;DHT22;12030;50.376;8.762;2024-01-16T15:50:04;2.00;99.90
23703;DHT22;12030;50.376;8.762;2024-01-16T15:52:33;2.00;99.90
23703;DHT22;12030;50.376;8.762;2024-01-16T15:54:59;1.90;99.90
23703;DHT22;12030;50.376;8.762;2024-01-16T15:57:25;1.90;99.90
23703;DHT22;12030;50.376;8.762;2024-01-16T15:59:51;1.70;99.90
23703;DHT22;12030;50.376;8.762;2024-01-16T16:02:17;1.70;99.90
23703;DHT22;12030;50.376;8.762;2024-01-16T16:04:42;1.60;99.90